sensor_id;sensor_type;location;lat;lon;timestamp;pressure;altitude;pressure_sealevel;temperature
37452;BMP280;23314;51.114;6.900;2022-10-31T00:00:28;101785.47;;;15.25
37452;BMP280;23314;51.114;6.900;2022-10-31T00:02:53;101793.19;;;15.23
37452;BMP280;23314;51.114;6.900;2022-10-31T00:05:19;101791.72;;;15.18
37452;BMP280;23314;51.114;6.900;2022-10-31T00:07:44;101786.38;;;15.14
37452;BMP280;23314;51.114;6.900;2022-10-31T00:10:09;101776.88;;;15.10
37452;BMP280;23314;51.114;6.900;2022-10-31T00:12:35;101784.25;;;15.06
37452;BMP280;23314;51.114;6.900;2022-10-31T00:15:00;101774.72;;;15.01
37452;BMP280;23314;51.114;6.900;2022-10-31T00:17:25;101778.59;;;14.96
37452;BMP280;23314;51.114;6.900;2022-10-31T00:19:51;101791.75;;;14.91
37452;BMP280;23314;51.114;6.900;2022-10-31T00:22:16;101789.53;;;14.85
37452;BMP280;23314;51.114;6.900;2022-10-31T00:24:42;101796.88;;;14.81
37452;BMP280;23314;51.114;6.900;2022-10-31T00:27:07;101792.00;;;14.76
37452;BMP280;23314;51.114;6.900;2022-10-31T00:29:32;101786.63;;;14.73
37452;BMP280;23314;51.114;6.900;2022-10-31T00:31:58;101789.41;;;14.69
37452;BMP280;23314;51.114;6.900;2022-10-31T00:34:23;101786.78;;;14.65
37452;BMP280;23314;51.114;6.900;2022-10-31T00:36:49;101779.09;;;14.64
37452;BMP280;23314;51.114;6.900;2022-10-31T00:39:14;101781.03;;;14.63
37452;BMP280;23314;51.114;6.900;2022-10-31T00:41:39;101783.38;;;14.61
37452;BMP280;23314;51.114;6.900;2022-10-31T00:44:05;101793.31;;;14.61
37452;BMP280;23314;51.114;6.900;2022-10-31T00:46:30;101794.16;;;14.58
37452;BMP280;23314;51.114;6.900;2022-10-31T00:48:55;101784.56;;;14.57
37452;BMP280;23314;51.114;6.900;2022-10-31T00:51:21;101790.31;;;14.59
37452;BMP280;23314;51.114;6.900;2022-10-31T00:53:46;101807.91;;;14.60
37452;BMP280;23314;51.114;6.900;2022-10-31T00:56:11;101826.28;;;14.65
37452;BMP280;23314;51.114;6.900;2022-10-31T00:58:37;101829.22;;;14.74
37452;BMP280;23314;51.114;6.900;2022-10-31T01:01:03;101814.13;;;14.84
37452;BMP280;23314;51.114;6.900;2022-10-31T01:03:31;101820.16;;;14.92
37452;BMP280;23314;51.114;6.900;2022-10-31T01:05:57;101822.31;;;15.00
37452;BMP280;23314;51.114;6.900;2022-10-31T01:08:24;101827.16;;;15.09
37452;BMP280;23314;51.114;6.900;2022-10-31T01:11:22;101814.38;;;15.17
37452;BMP280;23314;51.114;6.900;2022-10-31T01:13:50;101825.03;;;15.24
37452;BMP280;23314;51.114;6.900;2022-10-31T01:16:18;101828.78;;;15.30
37452;BMP280;23314;51.114;6.900;2022-10-31T01:18:44;101824.47;;;15.36
37452;BMP280;23314;51.114;6.900;2022-10-31T01:21:15;101818.91;;;15.44
37452;BMP280;23314;51.114;6.900;2022-10-31T01:23:41;101808.47;;;15.49
37452;BMP280;23314;51.114;6.900;2022-10-31T01:26:13;101795.34;;;15.51
37452;BMP280;23314;51.114;6.900;2022-10-31T01:28:45;101795.44;;;15.48
37452;BMP280;23314;51.114;6.900;2022-10-31T01:31:10;101801.25;;;15.46
37452;BMP280;23314;51.114;6.900;2022-10-31T01:33:36;101791.63;;;15.45
37452;BMP280;23314;51.114;6.900;2022-10-31T01:38:49;101785.03;;;15.26
37452;BMP280;23314;51.114;6.900;2022-10-31T01:41:17;101772.53;;;15.16
37452;BMP280;23314;51.114;6.900;2022-10-31T01:46:11;101771.59;;;15.02
37452;BMP280;23314;51.114;6.900;2022-10-31T01:48:37;101759.47;;;14.94
37452;BMP280;23314;51.114;6.900;2022-10-31T01:51:04;101769.91;;;14.89
37452;BMP280;23314;51.114;6.900;2022-10-31T01:53:31;101769.19;;;14.84
37452;BMP280;23314;51.114;6.900;2022-10-31T01:55:57;101762.38;;;14.80
37452;BMP280;23314;51.114;6.900;2022-10-31T01:58:25;101762.44;;;14.76
37452;BMP280;23314;51.114;6.900;2022-10-31T02:00:57;101764.06;;;14.70
37452;BMP280;23314;51.114;6.900;2022-10-31T02:03:24;101767.97;;;14.65
37452;BMP280;23314;51.114;6.900;2022-10-31T02:05:50;101763.78;;;14.61
37452;BMP280;23314;51.114;6.900;2022-10-31T02:08:33;101756.97;;;14.56
37452;BMP280;23314;51.114;6.900;2022-10-31T02:11:00;101765.84;;;14.53
37452;BMP280;23314;51.114;6.900;2022-10-31T02:13:27;101760.88;;;14.48
37452;BMP280;23314;51.114;6.900;2022-10-31T02:15:56;101765.56;;;14.44
37452;BMP280;23314;51.114;6.900;2022-10-31T02:18:23;101766.78;;;14.39
37452;BMP280;23314;51.114;6.900;2022-10-31T02:21:14;101759.97;;;14.34
37452;BMP280;23314;51.114;6.900;2022-10-31T02:23:56;101765.41;;;14.27
37452;BMP280;23314;51.114;6.900;2022-10-31T02:26:33;101765.47;;;14.20
37452;BMP280;23314;51.114;6.900;2022-10-31T02:29:35;101764.06;;;14.12
37452;BMP280;23314;51.114;6.900;2022-10-31T02:34:54;101777.59;;;14.01
37452;BMP280;23314;51.114;6.900;2022-10-31T02:39:59;101791.84;;;13.94
37452;BMP280;23314;51.114;6.900;2022-10-31T02:42:38;101788.47;;;13.90
37452;BMP280;23314;51.114;6.900;2022-10-31T02:45:17;101778.53;;;13.87
37452;BMP280;23314;51.114;6.900;2022-10-31T02:47:46;101778.16;;;13.85
37452;BMP280;23314;51.114;6.900;2022-10-31T02:50:18;101766.28;;;13.82
37452;BMP280;23314;51.114;6.900;2022-10-31T02:52:44;101770.53;;;13.80
37452;BMP280;23314;51.114;6.900;2022-10-31T02:58:02;101772.50;;;13.76
37452;BMP280;23314;51.114;6.900;2022-10-31T03:00:37;101775.97;;;13.73
37452;BMP280;23314;51.114;6.900;2022-10-31T03:03:14;101774.13;;;13.69
37452;BMP280;23314;51.114;6.900;2022-10-31T03:08:38;101781.41;;;13.65
37452;BMP280;23314;51.114;6.900;2022-10-31T03:11:08;101789.88;;;13.64
37452;BMP280;23314;51.114;6.900;2022-10-31T03:13:41;101781.38;;;13.69
37452;BMP280;23314;51.114;6.900;2022-10-31T03:16:14;101790.91;;;13.77
37452;BMP280;23314;51.114;6.900;2022-10-31T03:18:53;101780.50;;;13.83
37452;BMP280;23314;51.114;6.900;2022-10-31T03:21:51;101777.38;;;13.88
37452;BMP280;23314;51.114;6.900;2022-10-31T03:24:20;101786.47;;;13.94
37452;BMP280;23314;51.114;6.900;2022-10-31T03:26:50;101790.25;;;14.00
37452;BMP280;23314;51.114;6.900;2022-10-31T03:29:19;101785.91;;;14.10
37452;BMP280;23314;51.114;6.900;2022-10-31T03:31:57;101782.75;;;14.19
37452;BMP280;23314;51.114;6.900;2022-10-31T03:34:24;101785.34;;;14.26
37452;BMP280;23314;51.114;6.900;2022-10-31T03:36:52;101782.97;;;14.32
37452;BMP280;23314;51.114;6.900;2022-10-31T03:39:21;101780.53;;;14.41
37452;BMP280;23314;51.114;6.900;2022-10-31T03:41:54;101787.75;;;14.48
37452;BMP280;23314;51.114;6.900;2022-10-31T03:44:22;101782.34;;;14.51
37452;BMP280;23314;51.114;6.900;2022-10-31T03:46:49;101779.97;;;14.57
37452;BMP280;23314;51.114;6.900;2022-10-31T03:49:15;101777.59;;;14.63
37452;BMP280;23314;51.114;6.900;2022-10-31T03:51:49;101779.41;;;14.69
37452;BMP280;23314;51.114;6.900;2022-10-31T03:54:24;101780.47;;;14.76
37452;BMP280;23314;51.114;6.900;2022-10-31T03:56:53;101775.09;;;14.76
37452;BMP280;23314;51.114;6.900;2022-10-31T03:59:26;101768.56;;;14.77
37452;BMP280;23314;51.114;6.900;2022-10-31T04:01:58;101764.75;;;14.74
37452;BMP280;23314;51.114;6.900;2022-10-31T04:04:25;101771.69;;;14.72
37452;BMP280;23314;51.114;6.900;2022-10-31T04:06:52;101778.56;;;14.73
37452;BMP280;23314;51.114;6.900;2022-10-31T04:09:20;101776.66;;;14.73
37452;BMP280;23314;51.114;6.900;2022-10-31T04:11:49;101781.25;;;14.76
37452;BMP280;23314;51.114;6.900;2022-10-31T04:14:15;101773.88;;;14.80
37452;BMP280;23314;51.114;6.900;2022-10-31T04:16:42;101762.72;;;14.82
37452;BMP280;23314;51.114;6.900;2022-10-31T04:19:09;101769.28;;;14.81
37452;BMP280;23314;51.114;6.900;2022-10-31T04:21:35;101777.31;;;14.81
37452;BMP280;23314;51.114;6.900;2022-10-31T04:24:00;101773.13;;;14.80
37452;BMP280;23314;51.114;6.900;2022-10-31T04:26:25;101763.53;;;14.79
37452;BMP280;23314;51.114;6.900;2022-10-31T04:28:51;101757.06;;;14.76
37452;BMP280;23314;51.114;6.900;2022-10-31T04:31:17;101758.69;;;14.70
37452;BMP280;23314;51.114;6.900;2022-10-31T04:33:42;101753.41;;;14.63
37452;BMP280;23314;51.114;6.900;2022-10-31T04:36:08;101746.97;;;14.57
37452;BMP280;23314;51.114;6.900;2022-10-31T04:38:33;101743.28;;;14.47
37452;BMP280;23314;51.114;6.900;2022-10-31T04:40:59;101748.34;;;14.41
37452;BMP280;23314;51.114;6.900;2022-10-31T04:43:24;101753.06;;;14.33
37452;BMP280;23314;51.114;6.900;2022-10-31T04:45:50;101755.81;;;14.26
37452;BMP280;23314;51.114;6.900;2022-10-31T04:48:15;101762.03;;;14.19
37452;BMP280;23314;51.114;6.900;2022-10-31T04:50:41;101755.97;;;14.15
37452;BMP280;23314;51.114;6.900;2022-10-31T04:53:06;101756.38;;;14.10
37452;BMP280;23314;51.114;6.900;2022-10-31T04:55:32;101749.94;;;14.08
37452;BMP280;23314;51.114;6.900;2022-10-31T04:57:57;101746.47;;;14.07
37452;BMP280;23314;51.114;6.900;2022-10-31T05:00:22;101744.19;;;14.06
37452;BMP280;23314;51.114;6.900;2022-10-31T05:02:53;101733.88;;;14.04
37452;BMP280;23314;51.114;6.900;2022-10-31T05:05:22;101741.56;;;14.02
37452;BMP280;23314;51.114;6.900;2022-10-31T05:07:48;101736.22;;;14.02
37452;BMP280;23314;51.114;6.900;2022-10-31T05:10:16;101735.44;;;14.01
37452;BMP280;23314;51.114;6.900;2022-10-31T05:12:46;101724.69;;;14.01
37452;BMP280;23314;51.114;6.900;2022-10-31T05:15:13;101718.59;;;14.01
37452;BMP280;23314;51.114;6.900;2022-10-31T05:17:38;101727.38;;;14.01
37452;BMP280;23314;51.114;6.900;2022-10-31T05:20:04;101740.41;;;14.03
37452;BMP280;23314;51.114;6.900;2022-10-31T05:22:29;101732.75;;;14.01
37452;BMP280;23314;51.114;6.900;2022-10-31T05:24:54;101732.75;;;14.01
37452;BMP280;23314;51.114;6.900;2022-10-31T05:27:20;101735.84;;;14.00
37452;BMP280;23314;51.114;6.900;2022-10-31T05:29:46;101724.72;;;13.98
37452;BMP280;23314;51.114;6.900;2022-10-31T05:32:11;101731.25;;;13.97
37452;BMP280;23314;51.114;6.900;2022-10-31T05:34:36;101723.97;;;13.97
37452;BMP280;23314;51.114;6.900;2022-10-31T05:37:02;101729.69;;;13.99
37452;BMP280;23314;51.114;6.900;2022-10-31T05:39:27;101726.25;;;13.99
37452;BMP280;23314;51.114;6.900;2022-10-31T05:41:52;101720.13;;;14.02
37452;BMP280;23314;51.114;6.900;2022-10-31T05:44:18;101721.63;;;14.03
37452;BMP280;23314;51.114;6.900;2022-10-31T05:46:43;101724.31;;;14.03
37452;BMP280;23314;51.114;6.900;2022-10-31T05:49:08;101720.50;;;14.00
37452;BMP280;23314;51.114;6.900;2022-10-31T05:51:41;101714.00;;;13.98
37452;BMP280;23314;51.114;6.900;2022-10-31T05:54:06;101714.81;;;13.95
37452;BMP280;23314;51.114;6.900;2022-10-31T05:56:31;101721.34;;;13.94
37452;BMP280;23314;51.114;6.900;2022-10-31T05:58:57;101717.13;;;13.93
37452;BMP280;23314;51.114;6.900;2022-10-31T06:01:22;101719.44;;;13.91
37452;BMP280;23314;51.114;6.900;2022-10-31T06:03:47;101718.72;;;13.90
37452;BMP280;23314;51.114;6.900;2022-10-31T06:06:13;101718.34;;;13.88
37452;BMP280;23314;51.114;6.900;2022-10-31T06:08:38;101717.97;;;13.86
37452;BMP280;23314;51.114;6.900;2022-10-31T06:11:04;101717.63;;;13.84
37452;BMP280;23314;51.114;6.900;2022-10-31T06:13:29;101716.13;;;13.83
37452;BMP280;23314;51.114;6.900;2022-10-31T06:15:55;101712.31;;;13.80
37452;BMP280;23314;51.114;6.900;2022-10-31T06:18:20;101708.81;;;13.83
37452;BMP280;23314;51.114;6.900;2022-10-31T06:20:45;101719.53;;;13.83
37452;BMP280;23314;51.114;6.900;2022-10-31T06:23:11;101719.19;;;13.81
37452;BMP280;23314;51.114;6.900;2022-10-31T06:25:36;101718.44;;;13.81
37452;BMP280;23314;51.114;6.900;2022-10-31T06:28:01;101722.25;;;13.80
37452;BMP280;23314;51.114;6.900;2022-10-31T06:30:27;101723.84;;;13.77
37452;BMP280;23314;51.114;6.900;2022-10-31T06:32:52;101731.91;;;13.74
37452;BMP280;23314;51.114;6.900;2022-10-31T06:35:18;101719.31;;;13.70
37452;BMP280;23314;51.114;6.900;2022-10-31T06:37:51;101730.81;;;13.71
37452;BMP280;23314;51.114;6.900;2022-10-31T06:40:16;101725.47;;;13.67
37452;BMP280;23314;51.114;6.900;2022-10-31T06:42:41;101730.06;;;13.67
37452;BMP280;23314;51.114;6.900;2022-10-31T06:45:07;101734.69;;;13.66
37452;BMP280;23314;51.114;6.900;2022-10-31T06:47:32;101725.09;;;13.65
37452;BMP280;23314;51.114;6.900;2022-10-31T06:49:57;101728.53;;;13.66
37452;BMP280;23314;51.114;6.900;2022-10-31T06:52:23;101722.44;;;13.65
37452;BMP280;23314;51.114;6.900;2022-10-31T06:54:48;101722.03;;;13.67
37452;BMP280;23314;51.114;6.900;2022-10-31T06:57:13;101725.06;;;13.69
37452;BMP280;23314;51.114;6.900;2022-10-31T06:59:39;101717.41;;;13.71
37452;BMP280;23314;51.114;6.900;2022-10-31T07:02:04;101722.69;;;13.75
37452;BMP280;23314;51.114;6.900;2022-10-31T07:04:30;101723.78;;;13.81
37452;BMP280;23314;51.114;6.900;2022-10-31T07:06:55;101723.72;;;13.88
37452;BMP280;23314;51.114;6.900;2022-10-31T07:09:21;101720.59;;;13.93
37452;BMP280;23314;51.114;6.900;2022-10-31T07:11:46;101725.47;;;13.98
37452;BMP280;23314;51.114;6.900;2022-10-31T07:14:12;101727.38;;;14.01
37452;BMP280;23314;51.114;6.900;2022-10-31T07:16:37;101726.16;;;14.06
37452;BMP280;23314;51.114;6.900;2022-10-31T07:19:03;101724.88;;;14.18
37452;BMP280;23314;51.114;6.900;2022-10-31T07:21:28;101728.97;;;14.26
37452;BMP280;23314;51.114;6.900;2022-10-31T07:23:54;101735.06;;;14.30
37452;BMP280;23314;51.114;6.900;2022-10-31T07:26:19;101730.81;;;14.33
37452;BMP280;23314;51.114;6.900;2022-10-31T07:28:48;101727.69;;;14.38
37452;BMP280;23314;51.114;6.900;2022-10-31T07:31:13;101734.88;;;14.45
37452;BMP280;23314;51.114;6.900;2022-10-31T07:33:39;101739.41;;;14.48
37452;BMP280;23314;51.114;6.900;2022-10-31T07:36:05;101736.31;;;14.53
37452;BMP280;23314;51.114;6.900;2022-10-31T07:38:30;101741.22;;;14.58
37452;BMP280;23314;51.114;6.900;2022-10-31T07:40:56;101742.66;;;14.63
37452;BMP280;23314;51.114;6.900;2022-10-31T07:43:21;101749.84;;;14.69
37452;BMP280;23314;51.114;6.900;2022-10-31T07:45:51;101744.81;;;14.75
37452;BMP280;23314;51.114;6.900;2022-10-31T07:48:17;101748.94;;;14.80
37452;BMP280;23314;51.114;6.900;2022-10-31T07:50:43;101749.19;;;14.89
37452;BMP280;23314;51.114;6.900;2022-10-31T07:53:12;101743.69;;;14.96
37452;BMP280;23314;51.114;6.900;2022-10-31T07:55:38;101760.84;;;15.02
37452;BMP280;23314;51.114;6.900;2022-10-31T07:58:05;101753.44;;;15.10
37452;BMP280;23314;51.114;6.900;2022-10-31T08:00:33;101752.16;;;15.18
37452;BMP280;23314;51.114;6.900;2022-10-31T08:03:04;101745.16;;;15.25
37452;BMP280;23314;51.114;6.900;2022-10-31T08:05:30;101752.72;;;15.30
37452;BMP280;23314;51.114;6.900;2022-10-31T08:07:56;101748.72;;;15.38
37452;BMP280;23314;51.114;6.900;2022-10-31T08:10:23;101747.84;;;15.45
37452;BMP280;23314;51.114;6.900;2022-10-31T08:12:55;101742.34;;;15.52
37452;BMP280;23314;51.114;6.900;2022-10-31T08:15:21;101741.78;;;15.61
37452;BMP280;23314;51.114;6.900;2022-10-31T08:17:46;101740.84;;;15.71
37452;BMP280;23314;51.114;6.900;2022-10-31T08:20:12;101736.06;;;15.79
37452;BMP280;23314;51.114;6.900;2022-10-31T08:22:37;101736.69;;;15.86
37452;BMP280;23314;51.114;6.900;2022-10-31T08:25:02;101734.66;;;15.91
37452;BMP280;23314;51.114;6.900;2022-10-31T08:27:28;101735.41;;;15.91
37452;BMP280;23314;51.114;6.900;2022-10-31T08:29:53;101728.88;;;15.92
37452;BMP280;23314;51.114;6.900;2022-10-31T08:32:19;101726.09;;;15.96
37452;BMP280;23314;51.114;6.900;2022-10-31T08:34:44;101726.47;;;15.98
37452;BMP280;23314;51.114;6.900;2022-10-31T08:37:10;101728.28;;;16.01
37452;BMP280;23314;51.114;6.900;2022-10-31T08:39:35;101732.50;;;16.02
37452;BMP280;23314;51.114;6.900;2022-10-31T08:42:00;101730.22;;;16.00
37452;BMP280;23314;51.114;6.900;2022-10-31T08:44:26;101723.69;;;16.01
37452;BMP280;23314;51.114;6.900;2022-10-31T08:46:51;101724.34;;;16.06
37452;BMP280;23314;51.114;6.900;2022-10-31T08:49:16;101718.72;;;16.16
37452;BMP280;23314;51.114;6.900;2022-10-31T08:51:42;101717.75;;;16.27
37452;BMP280;23314;51.114;6.900;2022-10-31T08:54:07;101711.38;;;16.37
37452;BMP280;23314;51.114;6.900;2022-10-31T08:56:33;101707.97;;;16.49
37452;BMP280;23314;51.114;6.900;2022-10-31T08:58:58;101708.81;;;16.63
37452;BMP280;23314;51.114;6.900;2022-10-31T09:01:23;101716.22;;;16.75
37452;BMP280;23314;51.114;6.900;2022-10-31T09:03:49;101710.63;;;16.82
37452;BMP280;23314;51.114;6.900;2022-10-31T09:06:14;101699.69;;;16.90
37452;BMP280;23314;51.114;6.900;2022-10-31T09:08:40;101704.03;;;17.00
37452;BMP280;23314;51.114;6.900;2022-10-31T09:11:05;101699.88;;;17.12
37452;BMP280;23314;51.114;6.900;2022-10-31T09:13:31;101695.69;;;17.24
37452;BMP280;23314;51.114;6.900;2022-10-31T09:15:57;101684.28;;;17.32
37452;BMP280;23314;51.114;6.900;2022-10-31T09:18:23;101684.44;;;17.42
37452;BMP280;23314;51.114;6.900;2022-10-31T09:20:49;101690.47;;;17.46
37452;BMP280;23314;51.114;6.900;2022-10-31T09:23:20;101691.03;;;17.53
37452;BMP280;23314;51.114;6.900;2022-10-31T09:25:47;101694.69;;;17.60
37452;BMP280;23314;51.114;6.900;2022-10-31T09:28:17;101685.31;;;17.64
37452;BMP280;23314;51.114;6.900;2022-10-31T09:30:49;101686.50;;;17.76
37452;BMP280;23314;51.114;6.900;2022-10-31T09:33:15;101673.03;;;17.89
37452;BMP280;23314;51.114;6.900;2022-10-31T09:35:41;101669.00;;;17.94
37452;BMP280;23314;51.114;6.900;2022-10-31T09:38:10;101666.09;;;18.01
37452;BMP280;23314;51.114;6.900;2022-10-31T09:40:44;101677.00;;;18.10
37452;BMP280;23314;51.114;6.900;2022-10-31T09:43:14;101671.66;;;18.19
37452;BMP280;23314;51.114;6.900;2022-10-31T09:46:10;101665.41;;;18.22
37452;BMP280;23314;51.114;6.900;2022-10-31T09:51:20;101660.94;;;18.29
37452;BMP280;23314;51.114;6.900;2022-10-31T09:54:05;101662.16;;;18.28
37452;BMP280;23314;51.114;6.900;2022-10-31T09:56:33;101656.00;;;18.27
37452;BMP280;23314;51.114;6.900;2022-10-31T09:59:01;101655.25;;;18.27
37452;BMP280;23314;51.114;6.900;2022-10-31T10:01:35;101645.41;;;18.33
37452;BMP280;23314;51.114;6.900;2022-10-31T10:04:34;101640.75;;;18.33
37452;BMP280;23314;51.114;6.900;2022-10-31T10:07:12;101643.94;;;18.41
37452;BMP280;23314;51.114;6.900;2022-10-31T10:09:39;101636.91;;;18.44
37452;BMP280;23314;51.114;6.900;2022-10-31T10:17:40;101627.47;;;18.61
37452;BMP280;23314;51.114;6.900;2022-10-31T10:20:18;101623.31;;;18.69
37452;BMP280;23314;51.114;6.900;2022-10-31T10:23:27;101604.41;;;18.69
37452;BMP280;23314;51.114;6.900;2022-10-31T10:25:47;101612.25;;;18.77
37452;BMP280;23314;51.114;6.900;2022-10-31T10:28:21;101607.94;;;18.88
37452;BMP280;23314;51.114;6.900;2022-10-31T10:30:56;101597.19;;;18.98
37452;BMP280;23314;51.114;6.900;2022-10-31T10:36:33;101590.38;;;19.24
37452;BMP280;23314;51.114;6.900;2022-10-31T10:39:09;101576.28;;;19.30
37452;BMP280;23314;51.114;6.900;2022-10-31T10:41:41;101570.16;;;19.38
37452;BMP280;23314;51.114;6.900;2022-10-31T10:44:10;101564.75;;;19.48
37452;BMP280;23314;51.114;6.900;2022-10-31T10:46:51;101557.59;;;19.63
37452;BMP280;23314;51.114;6.900;2022-10-31T10:49:47;101551.09;;;19.70
37452;BMP280;23314;51.114;6.900;2022-10-31T11:02:53;101557.53;;;20.56
37452;BMP280;23314;51.114;6.900;2022-10-31T11:05:36;101548.88;;;20.76
37452;BMP280;23314;51.114;6.900;2022-10-31T11:08:03;101540.19;;;20.96
37452;BMP280;23314;51.114;6.900;2022-10-31T11:10:29;101533.41;;;21.01
37452;BMP280;23314;51.114;6.900;2022-10-31T11:13:02;101518.28;;;21.09
37452;BMP280;23314;51.114;6.900;2022-10-31T11:15:28;101523.47;;;21.22
37452;BMP280;23314;51.114;6.900;2022-10-31T11:17:56;101534.38;;;21.37
37452;BMP280;23314;51.114;6.900;2022-10-31T11:20:28;101532.28;;;21.56
37452;BMP280;23314;51.114;6.900;2022-10-31T11:23:17;101540.56;;;21.76
37452;BMP280;23314;51.114;6.900;2022-10-31T11:25:54;101538.44;;;21.95
37452;BMP280;23314;51.114;6.900;2022-10-31T11:28:20;101534.22;;;22.09
37452;BMP280;23314;51.114;6.900;2022-10-31T11:30:52;101532.81;;;22.29
37452;BMP280;23314;51.114;6.900;2022-10-31T11:33:37;101523.03;;;22.37
37452;BMP280;23314;51.114;6.900;2022-10-31T11:36:25;101510.50;;;22.39
37452;BMP280;23314;51.114;6.900;2022-10-31T11:38:52;101512.72;;;22.41
37452;BMP280;23314;51.114;6.900;2022-10-31T11:41:25;101505.13;;;22.45
37452;BMP280;23314;51.114;6.900;2022-10-31T11:43:56;101503.53;;;22.53
37452;BMP280;23314;51.114;6.900;2022-10-31T11:46:34;101492.06;;;22.64
37452;BMP280;23314;51.114;6.900;2022-10-31T11:49:01;101484.63;;;22.65
37452;BMP280;23314;51.114;6.900;2022-10-31T11:51:30;101482.00;;;22.70
37452;BMP280;23314;51.114;6.900;2022-10-31T11:53:58;101473.44;;;22.78
37452;BMP280;23314;51.114;6.900;2022-10-31T11:56:43;101464.94;;;22.90
37452;BMP280;23314;51.114;6.900;2022-10-31T11:59:24;101458.88;;;23.01
37452;BMP280;23314;51.114;6.900;2022-10-31T12:01:53;101463.59;;;23.01
37452;BMP280;23314;51.114;6.900;2022-10-31T12:04:24;101456.41;;;23.03
37452;BMP280;23314;51.114;6.900;2022-10-31T12:06:53;101454.53;;;23.09
37452;BMP280;23314;51.114;6.900;2022-10-31T12:09:27;101448.53;;;23.05
37452;BMP280;23314;51.114;6.900;2022-10-31T12:17:23;101437.78;;;22.96
37452;BMP280;23314;51.114;6.900;2022-10-31T12:22:47;101426.75;;;22.79
37452;BMP280;23314;51.114;6.900;2022-10-31T12:28:28;101408.88;;;22.57
37452;BMP280;23314;51.114;6.900;2022-10-31T12:31:05;101409.03;;;22.48
37452;BMP280;23314;51.114;6.900;2022-10-31T12:39:11;101402.72;;;22.36
37452;BMP280;23314;51.114;6.900;2022-10-31T12:41:47;101399.22;;;22.36
37452;BMP280;23314;51.114;6.900;2022-10-31T12:48:02;101385.91;;;22.38
37452;BMP280;23314;51.114;6.900;2022-10-31T12:50:55;101378.44;;;22.33
37452;BMP280;23314;51.114;6.900;2022-10-31T12:53:40;101368.50;;;22.30
37452;BMP280;23314;51.114;6.900;2022-10-31T12:59:11;101349.59;;;22.20
37452;BMP280;23314;51.114;6.900;2022-10-31T13:02:02;101346.59;;;22.18
37452;BMP280;23314;51.114;6.900;2022-10-31T13:04:41;101338.94;;;22.17
37452;BMP280;23314;51.114;6.900;2022-10-31T13:07:17;101332.28;;;22.18
37452;BMP280;23314;51.114;6.900;2022-10-31T13:09:58;101328.59;;;22.21
37452;BMP280;23314;51.114;6.900;2022-10-31T13:12:26;101324.00;;;22.27
37452;BMP280;23314;51.114;6.900;2022-10-31T13:15:11;101312.44;;;22.32
37452;BMP280;23314;51.114;6.900;2022-10-31T13:17:50;101303.34;;;22.35
37452;BMP280;23314;51.114;6.900;2022-10-31T13:20:37;101284.44;;;22.26
37452;BMP280;23314;51.114;6.900;2022-10-31T13:23:27;101301.22;;;22.25
37452;BMP280;23314;51.114;6.900;2022-10-31T13:25:55;101295.41;;;22.32
37452;BMP280;23314;51.114;6.900;2022-10-31T13:31:05;101296.19;;;22.38
37452;BMP280;23314;51.114;6.900;2022-10-31T13:33:34;101289.34;;;22.43
37452;BMP280;23314;51.114;6.900;2022-10-31T13:38:42;101295.84;;;22.51
37452;BMP280;23314;51.114;6.900;2022-10-31T13:41:40;101294.22;;;22.59
37452;BMP280;23314;51.114;6.900;2022-10-31T13:44:13;101293.56;;;22.70
37452;BMP280;23314;51.114;6.900;2022-10-31T13:46:40;101282.28;;;22.77
37452;BMP280;23314;51.114;6.900;2022-10-31T13:51:53;101273.88;;;22.75
37452;BMP280;23314;51.114;6.900;2022-10-31T13:54:34;101267.59;;;22.69
37452;BMP280;23314;51.114;6.900;2022-10-31T13:57:00;101248.66;;;22.54
37452;BMP280;23314;51.114;6.900;2022-10-31T13:59:28;101254.25;;;22.45
37452;BMP280;23314;51.114;6.900;2022-10-31T14:02:00;101248.47;;;22.37
37452;BMP280;23314;51.114;6.900;2022-10-31T14:04:54;101249.19;;;22.32
37452;BMP280;23314;51.114;6.900;2022-10-31T14:07:21;101256.31;;;22.29
37452;BMP280;23314;51.114;6.900;2022-10-31T14:12:31;101246.13;;;22.24
37452;BMP280;23314;51.114;6.900;2022-10-31T14:15:04;101236.47;;;22.23
37452;BMP280;23314;51.114;6.900;2022-10-31T14:17:36;101228.56;;;22.25
37452;BMP280;23314;51.114;6.900;2022-10-31T14:22:37;101220.03;;;22.32
37452;BMP280;23314;51.114;6.900;2022-10-31T14:25:33;101216.34;;;22.35
37452;BMP280;23314;51.114;6.900;2022-10-31T14:28:20;101199.81;;;22.39
37452;BMP280;23314;51.114;6.900;2022-10-31T14:30:55;101202.25;;;22.37
37452;BMP280;23314;51.114;6.900;2022-10-31T14:33:22;101194.09;;;22.37
37452;BMP280;23314;51.114;6.900;2022-10-31T14:36:03;101187.44;;;22.38
37452;BMP280;23314;51.114;6.900;2022-10-31T14:38:46;101185.75;;;22.41
37452;BMP280;23314;51.114;6.900;2022-10-31T14:41:22;101179.84;;;22.42
37452;BMP280;23314;51.114;6.900;2022-10-31T14:46:50;101172.91;;;22.41
37452;BMP280;23314;51.114;6.900;2022-10-31T14:51:59;101182.00;;;22.38
37452;BMP280;23314;51.114;6.900;2022-10-31T14:54:30;101174.63;;;22.38
37452;BMP280;23314;51.114;6.900;2022-10-31T14:57:05;101165.94;;;22.34
37452;BMP280;23314;51.114;6.900;2022-10-31T14:59:35;101155.53;;;22.33
37452;BMP280;23314;51.114;6.900;2022-10-31T15:02:23;101156.25;;;22.28
37452;BMP280;23314;51.114;6.900;2022-10-31T15:04:51;101147.00;;;22.19
37452;BMP280;23314;51.114;6.900;2022-10-31T15:07:21;101136.38;;;22.16
37452;BMP280;23314;51.114;6.900;2022-10-31T15:10:06;101124.94;;;22.12
37452;BMP280;23314;51.114;6.900;2022-10-31T15:12:44;101134.25;;;22.05
37452;BMP280;23314;51.114;6.900;2022-10-31T15:15:21;101140.16;;;22.03
37452;BMP280;23314;51.114;6.900;2022-10-31T15:17:55;101120.84;;;21.96
37452;BMP280;23314;51.114;6.900;2022-10-31T15:20:28;101129.88;;;21.87
37452;BMP280;23314;51.114;6.900;2022-10-31T15:22:56;101113.69;;;21.78
37452;BMP280;23314;51.114;6.900;2022-10-31T15:25:24;101114.59;;;21.69
37452;BMP280;23314;51.114;6.900;2022-10-31T15:27:51;101107.81;;;21.59
37452;BMP280;23314;51.114;6.900;2022-10-31T15:30:26;101099.78;;;21.49
37452;BMP280;23314;51.114;6.900;2022-10-31T15:32:52;101104.38;;;21.43